sensor_id;sensor_type;location;lat;lon;timestamp;temperature;humidity
49579;DHT22;35483;50.828;3.228;2023-05-28T00:02:15;14.60;80.70
49579;DHT22;35483;50.828;3.228;2023-05-28T00:04:41;14.50;80.80
49579;DHT22;35483;50.828;3.228;2023-05-28T00:07:06;14.50;81.10
49579;DHT22;35483;50.828;3.228;2023-05-28T00:09:38;14.40;81.30
49579;DHT22;35483;50.828;3.228;2023-05-28T00:12:06;14.40;81.40
49579;DHT22;35483;50.828;3.228;2023-05-28T00:14:33;14.30;81.20
49579;DHT22;35483;50.828;3.228;2023-05-28T00:16:58;14.30;81.00
49579;DHT22;35483;50.828;3.228;2023-05-28T00:19:24;14.30;80.90
49579;DHT22;35483;50.828;3.228;2023-05-28T00:21:50;14.30;81.30
49579;DHT22;35483;50.828;3.228;2023-05-28T00:24:17;14.30;81.30
49579;DHT22;35483;50.828;3.228;2023-05-28T00:26:43;14.30;81.60
49579;DHT22;35483;50.828;3.228;2023-05-28T00:29:08;14.20;81.90
49579;DHT22;35483;50.828;3.228;2023-05-28T00:31:34;14.10;82.20
49579;DHT22;35483;50.828;3.228;2023-05-28T00:34:00;14.10;81.50
49579;DHT22;35483;50.828;3.228;2023-05-28T00:36:26;14.10;81.90
49579;DHT22;35483;50.828;3.228;2023-05-28T00:38:52;14.10;81.60
49579;DHT22;35483;50.828;3.228;2023-05-28T00:41:22;14.10;81.60
49579;DHT22;35483;50.828;3.228;2023-05-28T00:43:51;14.10;82.10
49579;DHT22;35483;50.828;3.228;2023-05-28T00:46:18;14.10;82.80
49579;DHT22;35483;50.828;3.228;2023-05-28T00:48:45;14.00;81.80
49579;DHT22;35483;50.828;3.228;2023-05-28T00:51:12;14.00;81.70
49579;DHT22;35483;50.828;3.228;2023-05-28T00:53:38;14.10;81.60
49579;DHT22;35483;50.828;3.228;2023-05-28T00:56:05;14.10;81.50
49579;DHT22;35483;50.828;3.228;2023-05-28T00:58:32;14.10;81.80
49579;DHT22;35483;50.828;3.228;2023-05-28T01:01:00;14.00;82.00
49579;DHT22;35483;50.828;3.228;2023-05-28T01:03:26;14.00;82.20
49579;DHT22;35483;50.828;3.228;2023-05-28T01:05:52;14.00;81.70
49579;DHT22;35483;50.828;3.228;2023-05-28T01:08:18;14.00;81.70
49579;DHT22;35483;50.828;3.228;2023-05-28T01:10:44;14.00;82.10
49579;DHT22;35483;50.828;3.228;2023-05-28T01:13:11;14.00;81.40
49579;DHT22;35483;50.828;3.228;2023-05-28T01:15:37;14.00;82.20
49579;DHT22;35483;50.828;3.228;2023-05-28T01:18:03;14.00;82.30
49579;DHT22;35483;50.828;3.228;2023-05-28T01:20:30;14.00;82.90
49579;DHT22;35483;50.828;3.228;2023-05-28T01:23:05;13.90;82.20
49579;DHT22;35483;50.828;3.228;2023-05-28T01:25:33;13.90;84.00
49579;DHT22;35483;50.828;3.228;2023-05-28T01:28:00;13.90;83.50
49579;DHT22;35483;50.828;3.228;2023-05-28T01:30:28;13.80;82.90
49579;DHT22;35483;50.828;3.228;2023-05-28T01:32:54;13.80;82.40
49579;DHT22;35483;50.828;3.228;2023-05-28T01:35:20;13.80;82.40
49579;DHT22;35483;50.828;3.228;2023-05-28T01:37:49;13.90;82.50
49579;DHT22;35483;50.828;3.228;2023-05-28T01:40:17;13.90;83.10
49579;DHT22;35483;50.828;3.228;2023-05-28T01:42:44;13.80;83.40
49579;DHT22;35483;50.828;3.228;2023-05-28T01:45:10;13.80;83.00
49579;DHT22;35483;50.828;3.228;2023-05-28T01:47:38;13.80;82.60
49579;DHT22;35483;50.828;3.228;2023-05-28T01:50:05;13.80;82.20
49579;DHT22;35483;50.828;3.228;2023-05-28T01:52:31;13.80;83.00
49579;DHT22;35483;50.828;3.228;2023-05-28T01:54:56;13.80;82.80
49579;DHT22;35483;50.828;3.228;2023-05-28T01:57:22;13.80;83.40
49579;DHT22;35483;50.828;3.228;2023-05-28T01:59:48;13.80;83.30
49579;DHT22;35483;50.828;3.228;2023-05-28T02:02:14;13.80;82.90
49579;DHT22;35483;50.828;3.228;2023-05-28T02:04:39;13.80;83.10
49579;DHT22;35483;50.828;3.228;2023-05-28T02:07:05;13.70;83.10
49579;DHT22;35483;50.828;3.228;2023-05-28T02:09:32;13.70;83.70
49579;DHT22;35483;50.828;3.228;2023-05-28T02:11:57;13.70;82.80
49579;DHT22;35483;50.828;3.228;2023-05-28T02:14:28;13.70;83.00
49579;DHT22;35483;50.828;3.228;2023-05-28T02:16:54;13.70;83.30
49579;DHT22;35483;50.828;3.228;2023-05-28T02:19:20;13.70;83.40
49579;DHT22;35483;50.828;3.228;2023-05-28T02:21:46;13.70;83.50
49579;DHT22;35483;50.828;3.228;2023-05-28T02:24:11;13.70;83.30
49579;DHT22;35483;50.828;3.228;2023-05-28T02:26:37;13.70;83.50
49579;DHT22;35483;50.828;3.228;2023-05-28T02:29:03;13.70;83.40
49579;DHT22;35483;50.828;3.228;2023-05-28T02:31:29;13.70;83.90
49579;DHT22;35483;50.828;3.228;2023-05-28T02:33:55;13.60;83.80
49579;DHT22;35483;50.828;3.228;2023-05-28T02:36:21;13.60;83.70
49579;DHT22;35483;50.828;3.228;2023-05-28T02:38:48;13.60;83.80
49579;DHT22;35483;50.828;3.228;2023-05-28T02:41:14;13.60;83.50
49579;DHT22;35483;50.828;3.228;2023-05-28T02:43:40;13.60;83.90
49579;DHT22;35483;50.828;3.228;2023-05-28T02:46:05;13.60;83.80
49579;DHT22;35483;50.828;3.228;2023-05-28T02:48:31;13.60;83.70
49579;DHT22;35483;50.828;3.228;2023-05-28T02:50:57;13.60;83.70
49579;DHT22;35483;50.828;3.228;2023-05-28T02:53:23;13.50;83.80
49579;DHT22;35483;50.828;3.228;2023-05-28T02:55:49;13.60;83.80
49579;DHT22;35483;50.828;3.228;2023-05-28T02:58:15;13.60;83.80
49579;DHT22;35483;50.828;3.228;2023-05-28T03:00:42;13.50;84.20
49579;DHT22;35483;50.828;3.228;2023-05-28T03:03:08;13.50;83.80
49579;DHT22;35483;50.828;3.228;2023-05-28T03:05:34;13.50;83.90
49579;DHT22;35483;50.828;3.228;2023-05-28T03:08:00;13.50;84.20
49579;DHT22;35483;50.828;3.228;2023-05-28T03:10:26;13.40;83.80
49579;DHT22;35483;50.828;3.228;2023-05-28T03:12:52;13.40;84.00
49579;DHT22;35483;50.828;3.228;2023-05-28T03:15:18;13.40;84.10
49579;DHT22;35483;50.828;3.228;2023-05-28T03:17:44;13.40;84.10
49579;DHT22;35483;50.828;3.228;2023-05-28T03:20:10;13.40;84.10
49579;DHT22;35483;50.828;3.228;2023-05-28T03:22:38;13.40;84.00
49579;DHT22;35483;50.828;3.228;2023-05-28T03:25:04;13.30;84.10
49579;DHT22;35483;50.828;3.228;2023-05-28T03:27:31;13.30;84.10
49579;DHT22;35483;50.828;3.228;2023-05-28T03:29:57;13.30;84.00
49579;DHT22;35483;50.828;3.228;2023-05-28T03:32:23;13.30;84.30
49579;DHT22;35483;50.828;3.228;2023-05-28T03:34:49;13.30;84.30
49579;DHT22;35483;50.828;3.228;2023-05-28T03:37:15;13.20;84.30
49579;DHT22;35483;50.828;3.228;2023-05-28T03:39:43;13.20;84.40
49579;DHT22;35483;50.828;3.228;2023-05-28T03:42:08;13.20;84.50
49579;DHT22;35483;50.828;3.228;2023-05-28T03:44:34;13.20;84.60
49579;DHT22;35483;50.828;3.228;2023-05-28T03:47:00;13.20;84.70
49579;DHT22;35483;50.828;3.228;2023-05-28T03:49:26;13.10;84.50
49579;DHT22;35483;50.828;3.228;2023-05-28T03:51:52;13.20;84.50
49579;DHT22;35483;50.828;3.228;2023-05-28T03:54:18;13.20;84.60
49579;DHT22;35483;50.828;3.228;2023-05-28T03:56:44;13.20;84.70
49579;DHT22;35483;50.828;3.228;2023-05-28T03:59:09;13.30;84.70
49579;DHT22;35483;50.828;3.228;2023-05-28T04:01:35;13.30;85.10
49579;DHT22;35483;50.828;3.228;2023-05-28T04:04:02;13.30;84.90
49579;DHT22;35483;50.828;3.228;2023-05-28T04:06:28;13.30;84.50
49579;DHT22;35483;50.828;3.228;2023-05-28T04:08:56;13.30;84.50
49579;DHT22;35483;50.828;3.228;2023-05-28T04:11:21;13.30;84.30
49579;DHT22;35483;50.828;3.228;2023-05-28T04:13:50;13.40;84.60
49579;DHT22;35483;50.828;3.228;2023-05-28T04:16:16;13.40;84.70
49579;DHT22;35483;50.828;3.228;2023-05-28T04:18:42;13.40;85.60
49579;DHT22;35483;50.828;3.228;2023-05-28T04:21:08;13.40;84.90
49579;DHT22;35483;50.828;3.228;2023-05-28T04:23:34;13.50;84.50
49579;DHT22;35483;50.828;3.228;2023-05-28T04:25:59;13.50;85.20
49579;DHT22;35483;50.828;3.228;2023-05-28T04:28:25;13.50;84.90
49579;DHT22;35483;50.828;3.228;2023-05-28T04:30:53;13.60;84.80
49579;DHT22;35483;50.828;3.228;2023-05-28T04:33:20;13.60;84.80
49579;DHT22;35483;50.828;3.228;2023-05-28T04:35:47;13.70;84.70
49579;DHT22;35483;50.828;3.228;2023-05-28T04:38:13;13.80;84.80
49579;DHT22;35483;50.828;3.228;2023-05-28T04:40:39;13.80;84.40
49579;DHT22;35483;50.828;3.228;2023-05-28T04:43:05;13.90;84.50
49579;DHT22;35483;50.828;3.228;2023-05-28T04:45:32;14.00;84.70
49579;DHT22;35483;50.828;3.228;2023-05-28T04:47:58;14.10;84.50
49579;DHT22;35483;50.828;3.228;2023-05-28T04:50:24;14.10;84.30
49579;DHT22;35483;50.828;3.228;2023-05-28T04:52:50;14.20;84.40
49579;DHT22;35483;50.828;3.228;2023-05-28T04:55:16;14.20;84.50
49579;DHT22;35483;50.828;3.228;2023-05-28T04:57:42;14.20;84.20
49579;DHT22;35483;50.828;3.228;2023-05-28T05:00:08;14.30;84.50
49579;DHT22;35483;50.828;3.228;2023-05-28T05:02:40;14.40;83.80
49579;DHT22;35483;50.828;3.228;2023-05-28T05:05:09;14.40;83.80
49579;DHT22;35483;50.828;3.228;2023-05-28T05:07:35;14.50;84.80
49579;DHT22;35483;50.828;3.228;2023-05-28T05:10:06;14.50;83.70
49579;DHT22;35483;50.828;3.228;2023-05-28T05:12:33;14.60;84.40
49579;DHT22;35483;50.828;3.228;2023-05-28T05:14:59;14.60;83.50
49579;DHT22;35483;50.828;3.228;2023-05-28T05:17:25;14.70;83.60
49579;DHT22;35483;50.828;3.228;2023-05-28T05:19:52;14.80;83.60
49579;DHT22;35483;50.828;3.228;2023-05-28T05:22:18;14.80;83.80
49579;DHT22;35483;50.828;3.228;2023-05-28T05:24:45;14.90;83.60
49579;DHT22;35483;50.828;3.228;2023-05-28T05:27:11;15.00;84.90
49579;DHT22;35483;50.828;3.228;2023-05-28T05:29:37;15.00;84.20
49579;DHT22;35483;50.828;3.228;2023-05-28T05:32:03;15.10;84.80
49579;DHT22;35483;50.828;3.228;2023-05-28T05:34:29;15.10;85.30
49579;DHT22;35483;50.828;3.228;2023-05-28T05:36:55;15.20;84.70
49579;DHT22;35483;50.828;3.228;2023-05-28T05:39:22;15.60;84.00
49579;DHT22;35483;50.828;3.228;2023-05-28T05:41:47;16.50;81.90
49579;DHT22;35483;50.828;3.228;2023-05-28T05:44:13;17.80;80.10
49579;DHT22;35483;50.828;3.228;2023-05-28T05:46:39;19.10;77.60
49579;DHT22;35483;50.828;3.228;2023-05-28T05:49:05;20.20;75.20
49579;DHT22;35483;50.828;3.228;2023-05-28T05:51:31;21.10;73.60
49579;DHT22;35483;50.828;3.228;2023-05-28T05:53:57;21.80;72.40
49579;DHT22;35483;50.828;3.228;2023-05-28T05:56:23;21.60;72.70
49579;DHT22;35483;50.828;3.228;2023-05-28T05:58:51;21.40;72.90
49579;DHT22;35483;50.828;3.228;2023-05-28T06:01:17;22.00;72.00
49579;DHT22;35483;50.828;3.228;2023-05-28T06:03:43;22.60;71.30
49579;DHT22;35483;50.828;3.228;2023-05-28T06:06:09;23.20;69.90
49579;DHT22;35483;50.828;3.228;2023-05-28T06:08:36;23.70;69.10
49579;DHT22;35483;50.828;3.228;2023-05-28T06:11:01;23.00;69.40
49579;DHT22;35483;50.828;3.228;2023-05-28T06:13:28;21.50;72.30
49579;DHT22;35483;50.828;3.228;2023-05-28T06:15:54;20.10;75.50
49579;DHT22;35483;50.828;3.228;2023-05-28T06:18:19;19.20;77.30
49579;DHT22;35483;50.828;3.228;2023-05-28T06:20:47;18.60;78.60
49579;DHT22;35483;50.828;3.228;2023-05-28T06:23:15;18.20;79.70
49579;DHT22;35483;50.828;3.228;2023-05-28T06:25:41;17.90;80.10
49579;DHT22;35483;50.828;3.228;2023-05-28T06:28:07;17.60;80.70
49579;DHT22;35483;50.828;3.228;2023-05-28T06:30:33;17.50;81.00
49579;DHT22;35483;50.828;3.228;2023-05-28T06:32:58;17.40;81.70
49579;DHT22;35483;50.828;3.228;2023-05-28T06:35:24;17.30;81.80
49579;DHT22;35483;50.828;3.228;2023-05-28T06:37:50;17.30;81.60
49579;DHT22;35483;50.828;3.228;2023-05-28T06:40:16;17.20;81.90
49579;DHT22;35483;50.828;3.228;2023-05-28T06:42:42;17.20;82.50
49579;DHT22;35483;50.828;3.228;2023-05-28T06:45:08;17.20;82.00
49579;DHT22;35483;50.828;3.228;2023-05-28T06:47:34;17.20;81.80
49579;DHT22;35483;50.828;3.228;2023-05-28T06:49:59;17.20;82.10
49579;DHT22;35483;50.828;3.228;2023-05-28T06:52:25;17.30;82.60
49579;DHT22;35483;50.828;3.228;2023-05-28T06:54:52;17.30;82.90
49579;DHT22;35483;50.828;3.228;2023-05-28T06:57:18;17.30;82.60
49579;DHT22;35483;50.828;3.228;2023-05-28T06:59:44;17.30;83.40
49579;DHT22;35483;50.828;3.228;2023-05-28T07:02:10;17.30;82.60
49579;DHT22;35483;50.828;3.228;2023-05-28T07:04:36;17.40;82.60
49579;DHT22;35483;50.828;3.228;2023-05-28T07:07:03;17.40;82.70
49579;DHT22;35483;50.828;3.228;2023-05-28T07:09:29;17.40;83.00
49579;DHT22;35483;50.828;3.228;2023-05-28T07:11:55;17.40;82.70
49579;DHT22;35483;50.828;3.228;2023-05-28T07:14:22;17.50;82.90
49579;DHT22;35483;50.828;3.228;2023-05-28T07:16:47;17.60;82.80
49579;DHT22;35483;50.828;3.228;2023-05-28T07:19:14;17.70;82.90
49579;DHT22;35483;50.828;3.228;2023-05-28T07:21:39;17.70;83.40
49579;DHT22;35483;50.828;3.228;2023-05-28T07:24:05;17.80;83.00
49579;DHT22;35483;50.828;3.228;2023-05-28T07:26:32;17.90;82.70
49579;DHT22;35483;50.828;3.228;2023-05-28T07:29:01;17.90;83.00
49579;DHT22;35483;50.828;3.228;2023-05-28T07:31:27;18.00;83.20
49579;DHT22;35483;50.828;3.228;2023-05-28T07:33:53;18.10;82.80
49579;DHT22;35483;50.828;3.228;2023-05-28T07:36:19;18.20;82.60
49579;DHT22;35483;50.828;3.228;2023-05-28T07:38:45;18.20;82.70
49579;DHT22;35483;50.828;3.228;2023-05-28T07:41:11;18.30;82.40
49579;DHT22;35483;50.828;3.228;2023-05-28T07:43:37;18.30;82.80
49579;DHT22;35483;50.828;3.228;2023-05-28T07:46:03;18.30;82.50
49579;DHT22;35483;50.828;3.228;2023-05-28T07:48:29;18.30;82.90
49579;DHT22;35483;50.828;3.228;2023-05-28T07:50:55;18.30;82.60
49579;DHT22;35483;50.828;3.228;2023-05-28T07:53:20;18.40;82.80
49579;DHT22;35483;50.828;3.228;2023-05-28T07:55:46;18.50;82.60
49579;DHT22;35483;50.828;3.228;2023-05-28T07:58:12;18.50;82.60
49579;DHT22;35483;50.828;3.228;2023-05-28T08:00:38;18.60;82.40
49579;DHT22;35483;50.828;3.228;2023-05-28T08:03:05;18.60;82.30
49579;DHT22;35483;50.828;3.228;2023-05-28T08:05:31;18.70;82.50
49579;DHT22;35483;50.828;3.228;2023-05-28T08:07:57;18.80;82.20
49579;DHT22;35483;50.828;3.228;2023-05-28T08:10:23;18.80;82.40
49579;DHT22;35483;50.828;3.228;2023-05-28T08:12:49;18.90;82.20
49579;DHT22;35483;50.828;3.228;2023-05-28T08:15:15;19.10;82.30
49579;DHT22;35483;50.828;3.228;2023-05-28T08:17:41;19.20;82.50
49579;DHT22;35483;50.828;3.228;2023-05-28T08:20:08;19.20;82.20
49579;DHT22;35483;50.828;3.228;2023-05-28T08:22:35;19.30;81.80
49579;DHT22;35483;50.828;3.228;2023-05-28T08:25:01;19.40;81.80
49579;DHT22;35483;50.828;3.228;2023-05-28T08:27:28;19.40;81.80
49579;DHT22;35483;50.828;3.228;2023-05-28T08:29:53;19.50;81.80
49579;DHT22;35483;50.828;3.228;2023-05-28T08:32:21;19.50;81.60
49579;DHT22;35483;50.828;3.228;2023-05-28T08:34:46;19.60;81.60
49579;DHT22;35483;50.828;3.228;2023-05-28T08:37:13;19.60;81.70
49579;DHT22;35483;50.828;3.228;2023-05-28T08:39:39;19.60;81.50
49579;DHT22;35483;50.828;3.228;2023-05-28T08:42:05;19.60;81.40
49579;DHT22;35483;50.828;3.228;2023-05-28T08:44:31;19.70;81.40
49579;DHT22;35483;50.828;3.228;2023-05-28T08:46:57;19.70;80.90
49579;DHT22;35483;50.828;3.228;2023-05-28T08:49:32;19.70;81.20
49579;DHT22;35483;50.828;3.228;2023-05-28T08:52:02;19.80;81.20
49579;DHT22;35483;50.828;3.228;2023-05-28T08:54:30;19.90;81.30
49579;DHT22;35483;50.828;3.228;2023-05-28T08:56:56;20.00;81.10
49579;DHT22;35483;50.828;3.228;2023-05-28T08:59:23;20.00;81.10
49579;DHT22;35483;50.828;3.228;2023-05-28T09:01:51;20.10;81.10
49579;DHT22;35483;50.828;3.228;2023-05-28T09:04:17;20.30;81.00
49579;DHT22;35483;50.828;3.228;2023-05-28T09:06:42;20.30;80.50
49579;DHT22;35483;50.828;3.228;2023-05-28T09:09:08;20.40;80.40
49579;DHT22;35483;50.828;3.228;2023-05-28T09:11:35;20.50;80.30
49579;DHT22;35483;50.828;3.228;2023-05-28T09:14:12;20.50;80.30
49579;DHT22;35483;50.828;3.228;2023-05-28T09:16:42;20.60;79.60
49579;DHT22;35483;50.828;3.228;2023-05-28T09:19:08;20.70;79.80
49579;DHT22;35483;50.828;3.228;2023-05-28T09:21:34;20.70;80.20
49579;DHT22;35483;50.828;3.228;2023-05-28T09:24:06;20.70;80.10
49579;DHT22;35483;50.828;3.228;2023-05-28T09:26:33;20.80;80.20
49579;DHT22;35483;50.828;3.228;2023-05-28T09:28:59;20.80;79.70
49579;DHT22;35483;50.828;3.228;2023-05-28T09:31:31;20.80;80.10
49579;DHT22;35483;50.828;3.228;2023-05-28T09:34:02;20.90;80.00
49579;DHT22;35483;50.828;3.228;2023-05-28T09:36:29;20.90;80.20
49579;DHT22;35483;50.828;3.228;2023-05-28T09:38:56;21.00;80.10
49579;DHT22;35483;50.828;3.228;2023-05-28T09:41:23;21.00;80.10
49579;DHT22;35483;50.828;3.228;2023-05-28T09:43:57;21.00;79.50
49579;DHT22;35483;50.828;3.228;2023-05-28T09:46:33;21.10;75.80
49579;DHT22;35483;50.828;3.228;2023-05-28T09:49:00;21.10;78.70
49579;DHT22;35483;50.828;3.228;2023-05-28T09:51:28;21.10;79.60
49579;DHT22;35483;50.828;3.228;2023-05-28T09:54:02;21.20;79.20
49579;DHT22;35483;50.828;3.228;2023-05-28T09:56:30;21.20;77.50
49579;DHT22;35483;50.828;3.228;2023-05-28T09:58:58;21.30;78.30
49579;DHT22;35483;50.828;3.228;2023-05-28T10:01:29;21.40;79.10
49579;DHT22;35483;50.828;3.228;2023-05-28T10:04:09;21.40;77.50
49579;DHT22;35483;50.828;3.228;2023-05-28T10:06:38;21.50;75.20
49579;DHT22;35483;50.828;3.228;2023-05-28T10:09:06;21.50;78.70
49579;DHT22;35483;50.828;3.228;2023-05-28T10:11:42;21.60;78.20
49579;DHT22;35483;50.828;3.228;2023-05-28T10:14:10;21.70;76.90
49579;DHT22;35483;50.828;3.228;2023-05-28T10:16:37;21.80;78.30
49579;DHT22;35483;50.828;3.228;2023-05-28T10:19:03;21.80;79.00
49579;DHT22;35483;50.828;3.228;2023-05-28T10:21:29;21.90;78.10
49579;DHT22;35483;50.828;3.228;2023-05-28T10:23:56;21.80;78.20
49579;DHT22;35483;50.828;3.228;2023-05-28T10:26:23;21.80;77.80
49579;DHT22;35483;50.828;3.228;2023-05-28T10:28:56;21.80;78.10
49579;DHT22;35483;50.828;3.228;2023-05-28T10:31:23;21.80;75.40
49579;DHT22;35483;50.828;3.228;2023-05-28T10:33:49;21.90;78.00
49579;DHT22;35483;50.828;3.228;2023-05-28T10:36:16;21.80;77.90
49579;DHT22;35483;50.828;3.228;2023-05-28T10:41:21;21.90;76.20
49579;DHT22;35483;50.828;3.228;2023-05-28T10:43:50;22.00;77.30
49579;DHT22;35483;50.828;3.228;2023-05-28T10:46:34;21.90;72.70
49579;DHT22;35483;50.828;3.228;2023-05-28T10:51:58;22.00;77.60
49579;DHT22;35483;50.828;3.228;2023-05-28T10:57:13;22.10;73.20
49579;DHT22;35483;50.828;3.228;2023-05-28T11:02:15;22.30;75.40
49579;DHT22;35483;50.828;3.228;2023-05-28T11:04:42;22.30;76.40
49579;DHT22;35483;50.828;3.228;2023-05-28T11:07:07;22.30;76.40
49579;DHT22;35483;50.828;3.228;2023-05-28T11:09:34;22.40;76.30
49579;DHT22;35483;50.828;3.228;2023-05-28T11:12:01;22.40;75.40
49579;DHT22;35483;50.828;3.228;2023-05-28T11:14:37;22.50;76.00
49579;DHT22;35483;50.828;3.228;2023-05-28T11:17:11;22.50;70.20
49579;DHT22;35483;50.828;3.228;2023-05-28T11:19:43;22.50;72.00
49579;DHT22;35483;50.828;3.228;2023-05-28T11:22:10;22.50;72.80
49579;DHT22;35483;50.828;3.228;2023-05-28T11:24:54;22.50;75.90
49579;DHT22;35483;50.828;3.228;2023-05-28T11:27:22;22.50;74.70
49579;DHT22;35483;50.828;3.228;2023-05-28T11:29:49;22.50;75.50
49579;DHT22;35483;50.828;3.228;2023-05-28T11:32:18;22.50;75.80
49579;DHT22;35483;50.828;3.228;2023-05-28T11:34:44;22.50;75.50
49579;DHT22;35483;50.828;3.228;2023-05-28T11:37:10;22.60;76.00
49579;DHT22;35483;50.828;3.228;2023-05-28T11:39:36;22.60;76.00
49579;DHT22;35483;50.828;3.228;2023-05-28T11:42:07;22.60;75.00
49579;DHT22;35483;50.828;3.228;2023-05-28T11:44:33;22.60;76.00
49579;DHT22;35483;50.828;3.228;2023-05-28T11:46:59;22.60;76.40
49579;DHT22;35483;50.828;3.228;2023-05-28T11:49:27;22.60;76.00
49579;DHT22;35483;50.828;3.228;2023-05-28T11:51:53;22.60;76.20
49579;DHT22;35483;50.828;3.228;2023-05-28T11:54:20;22.60;76.10
49579;DHT22;35483;50.828;3.228;2023-05-28T11:56:50;22.60;76.30
49579;DHT22;35483;50.828;3.228;2023-05-28T11:59:16;22.60;73.90
49579;DHT22;35483;50.828;3.228;2023-05-28T12:01:42;22.60;76.20
49579;DHT22;35483;50.828;3.228;2023-05-28T12:04:08;22.60;75.90
49579;DHT22;35483;50.828;3.228;2023-05-28T12:06:35;22.60;75.90
49579;DHT22;35483;50.828;3.228;2023-05-28T12:09:14;22.60;75.70
49579;DHT22;35483;50.828;3.228;2023-05-28T12:11:40;22.60;75.80
49579;DHT22;35483;50.828;3.228;2023-05-28T12:14:13;22.70;76.00
49579;DHT22;35483;50.828;3.228;2023-05-28T12:16:47;22.70;75.80
49579;DHT22;35483;50.828;3.228;2023-05-28T12:19:18;22.70;70.40
49579;DHT22;35483;50.828;3.228;2023-05-28T12:21:44;22.70;75.40
49579;DHT22;35483;50.828;3.228;2023-05-28T12:24:14;22.70;75.70
49579;DHT22;35483;50.828;3.228;2023-05-28T12:26:43;22.70;74.70
49579;DHT22;35483;50.828;3.228;2023-05-28T12:29:09;22.80;75.70
49579;DHT22;35483;50.828;3.228;2023-05-28T12:31:36;22.80;75.80
49579;DHT22;35483;50.828;3.228;2023-05-28T12:34:02;22.80;75.90
49579;DHT22;35483;50.828;3.228;2023-05-28T12:36:28;22.90;75.70
49579;DHT22;35483;50.828;3.228;2023-05-28T12:38:54;22.90;75.60
49579;DHT22;35483;50.828;3.228;2023-05-28T12:41:19;22.90;75.70
49579;DHT22;35483;50.828;3.228;2023-05-28T12:43:45;22.80;75.60
49579;DHT22;35483;50.828;3.228;2023-05-28T12:46:11;22.90;75.60
49579;DHT22;35483;50.828;3.228;2023-05-28T12:48:37;23.00;75.50
49579;DHT22;35483;50.828;3.228;2023-05-28T12:51:03;22.90;75.40
49579;DHT22;35483;50.828;3.228;2023-05-28T12:53:29;22.90;75.40
49579;DHT22;35483;50.828;3.228;2023-05-28T12:55:55;22.90;75.10
49579;DHT22;35483;50.828;3.228;2023-05-28T12:58:20;22.90;74.50
49579;DHT22;35483;50.828;3.228;2023-05-28T13:00:48;23.00;73.90
49579;DHT22;35483;50.828;3.228;2023-05-28T13:03:13;23.00;75.10
49579;DHT22;35483;50.828;3.228;2023-05-28T13:05:39;23.00;74.50
49579;DHT22;35483;50.828;3.228;2023-05-28T13:08:05;22.90;73.80
49579;DHT22;35483;50.828;3.228;2023-05-28T13:10:31;22.90;74.50
49579;DHT22;35483;50.828;3.228;2023-05-28T13:12:57;23.00;74.00
49579;DHT22;35483;50.828;3.228;2023-05-28T13:15:23;23.00;74.40
49579;DHT22;35483;50.828;3.228;2023-05-28T13:17:49;23.00;74.10
49579;DHT22;35483;50.828;3.228;2023-05-28T13:20:15;23.00;74.40
49579;DHT22;35483;50.828;3.228;2023-05-28T13:22:42;23.00;73.90
49579;DHT22;35483;50.828;3.228;2023-05-28T13:25:09;23.00;74.00
49579;DHT22;35483;50.828;3.228;2023-05-28T13:27:35;23.10;74.20
49579;DHT22;35483;50.828;3.228;2023-05-28T13:30:01;23.10;74.50
49579;DHT22;35483;50.828;3.228;2023-05-28T13:32:28;23.10;73.70
49579;DHT22;35483;50.828;3.228;2023-05-28T13:34:53;23.10;73.80
49579;DHT22;35483;50.828;3.228;2023-05-28T13:37:20;23.10;74.10
49579;DHT22;35483;50.828;3.228;2023-05-28T13:39:46;23.10;73.20
49579;DHT22;35483;50.828;3.228;2023-05-28T13:42:12;23.10;73.70
49579;DHT22;35483;50.828;3.228;2023-05-28T13:44:38;23.10;73.50
49579;DHT22;35483;50.828;3.228;2023-05-28T13:47:05;23.10;73.00
49579;DHT22;35483;50.828;3.228;2023-05-28T13:49:30;23.10;73.60
49579;DHT22;35483;50.828;3.228;2023-05-28T13:51:57;23.10;73.30
49579;DHT22;35483;50.828;3.228;2023-05-28T13:54:23;23.10;73.50
49579;DHT22;35483;50.828;3.228;2023-05-28T13:56:49;23.20;73.50
49579;DHT22;35483;50.828;3.228;2023-05-28T13:59:14;23.20;73.80
49579;DHT22;35483;50.828;3.228;2023-05-28T14:01:40;23.20;73.00
49579;DHT22;35483;50.828;3.228;2023-05-28T14:04:06;23.20;73.30
49579;DHT22;35483;50.828;3.228;2023-05-28T14:06:32;23.20;73.40
49579;DHT22;35483;50.828;3.228;2023-05-28T14:08:57;23.30;73.70
49579;DHT22;35483;50.828;3.228;2023-05-28T14:11:23;23.30;73.50
49579;DHT22;35483;50.828;3.228;2023-05-28T14:13:49;23.30;73.40
49579;DHT22;35483;50.828;3.228;2023-05-28T14:16:15;23.40;73.50
49579;DHT22;35483;50.828;3.228;2023-05-28T14:18:40;23.30;72.70
49579;DHT22;35483;50.828;3.228;2023-05-28T14:21:06;23.40;70.10
49579;DHT22;35483;50.828;3.228;2023-05-28T14:23:32;23.40;73.20
49579;DHT22;35483;50.828;3.228;2023-05-28T14:25:59;23.50;72.50
49579;DHT22;35483;50.828;3.228;2023-05-28T14:28:25;23.40;72.80
49579;DHT22;35483;50.828;3.228;2023-05-28T14:30:52;23.50;72.50
49579;DHT22;35483;50.828;3.228;2023-05-28T14:33:18;23.40;72.80
49579;DHT22;35483;50.828;3.228;2023-05-28T14:35:43;23.40;72.90
49579;DHT22;35483;50.828;3.228;2023-05-28T14:38:09;23.40;72.60
49579;DHT22;35483;50.828;3.228;2023-05-28T14:40:35;23.40;73.00
49579;DHT22;35483;50.828;3.228;2023-05-28T14:43:01;23.40;72.70
49579;DHT22;35483;50.828;3.228;2023-05-28T14:45:26;23.50;72.20
49579;DHT22;35483;50.828;3.228;2023-05-28T14:47:52;23.40;72.50
49579;DHT22;35483;50.828;3.228;2023-05-28T14:50:18;23.50;72.80
49579;DHT22;35483;50.828;3.228;2023-05-28T14:52:43;23.50;72.50
49579;DHT22;35483;50.828;3.228;2023-05-28T14:55:09;23.50;72.80
49579;DHT22;35483;50.828;3.228;2023-05-28T14:57:35;23.50;72.30
49579;DHT22;35483;50.828;3.228;2023-05-28T15:00:05;23.50;72.50
49579;DHT22;35483;50.828;3.228;2023-05-28T15:02:36;23.50;72.60
49579;DHT22;35483;50.828;3.228;2023-05-28T15:05:02;23.50;72.20
49579;DHT22;35483;50.828;3.228;2023-05-28T15:07:31;23.60;72.90
49579;DHT22;35483;50.828;3.228;2023-05-28T15:09:57;23.60;73.10
49579;DHT22;35483;50.828;3.228;2023-05-28T15:12:24;23.60;73.00
49579;DHT22;35483;50.828;3.228;2023-05-28T15:14:49;23.60;73.40
49579;DHT22;35483;50.828;3.228;2023-05-28T15:17:15;23.60;73.60
49579;DHT22;35483;50.828;3.228;2023-05-28T15:19:41;23.50;73.60
49579;DHT22;35483;50.828;3.228;2023-05-28T15:22:07;23.60;73.30
49579;DHT22;35483;50.828;3.228;2023-05-28T15:24:33;23.50;71.90
49579;DHT22;35483;50.828;3.228;2023-05-28T15:27:00;23.50;72.80
49579;DHT22;35483;50.828;3.228;2023-05-28T15:29:28;23.50;72.90
49579;DHT22;35483;50.828;3.228;2023-05-28T15:31:55;23.50;72.80
49579;DHT22;35483;50.828;3.228;2023-05-28T15:34:22;23.50;73.00
49579;DHT22;35483;50.828;3.228;2023-05-28T15:36:48;23.50;73.50
49579;DHT22;35483;50.828;3.228;2023-05-28T15:39:14;23.50;73.40